Time,TemperatureF,DewpointF,PressureIn,WindDirection,WindDirectionDegrees,WindSpeedMPH,WindSpeedGustMPH,Humidity,HourlyPrecipIn,Conditions,Clouds,dailyrainin,SoftwareType,DateUTC
2013-06-12 00:00:00,62.4,25.2,29.55,North,355,14.0,21.0,24,0.00,,---,0.00,VWS V14.01,2013-06-12 06:00:00,
2013-06-12 00:02:00,62.4,25.2,29.55,North,355,14.0,21.0,24,0.00,,---,0.00,VWS V14.01,2013-06-12 06:02:00,
2013-06-12 00:10:00,60.9,24.9,29.55,North,5,13.0,18.0,25,0.00,,---,0.00,VWS V14.01,2013-06-12 06:10:00,
2013-06-12 00:11:00,60.9,24.9,29.55,North,5,13.0,18.0,25,0.00,,---,0.00,VWS V14.01,2013-06-12 06:11:00,
2013-06-12 00:20:00,63.2,24.8,29.54,NNW,340,9.0,17.0,23,0.00,,---,0.00,VWS V14.01,2013-06-12 06:20:00,
2013-06-12 00:21:00,63.2,24.8,29.54,NNW,340,9.0,17.0,23,0.00,,---,0.00,VWS V14.01,2013-06-12 06:21:00,
2013-06-12 00:30:00,62.4,24.1,29.55,NW,315,12.0,15.0,23,0.00,,---,0.00,VWS V14.01,2013-06-12 06:30:00,
2013-06-12 00:31:00,62.4,24.1,29.55,NW,315,12.0,15.0,23,0.00,,---,0.00,VWS V14.01,2013-06-12 06:31:00,
2013-06-12 00:40:00,62.1,23.9,29.55,NNW,336,11.0,14.0,23,0.00,,---,0.00,VWS V14.01,2013-06-12 06:40:00,
2013-06-12 00:41:00,62.1,23.9,29.55,NNW,336,11.0,14.0,23,0.00,,---,0.00,VWS V14.01,2013-06-12 06:41:00,
2013-06-12 00:50:00,62.8,24.5,29.54,NW,326,9.0,16.0,23,0.00,,---,0.00,VWS V14.01,2013-06-12 06:50:00,
2013-06-12 00:52:00,62.8,24.5,29.54,NW,326,9.0,16.0,23,0.00,,---,0.00,VWS V14.01,2013-06-12 06:52:00,
2013-06-12 01:00:00,62.0,23.8,29.55,North,350,11.0,19.0,23,0.00,,---,0.00,VWS V14.01,2013-06-12 07:00:00,
2013-06-12 01:01:00,62.0,23.8,29.55,North,350,11.0,19.0,23,0.00,,---,0.00,VWS V14.01,2013-06-12 07:01:00,
2013-06-12 01:10:00,61.2,23.1,29.55,NNW,346,10.0,15.0,23,0.00,,---,0.00,VWS V14.01,2013-06-12 07:10:00,
2013-06-12 01:11:00,61.2,23.1,29.55,NNW,346,10.0,15.0,23,0.00,,---,0.00,VWS V14.01,2013-06-12 07:11:00,
2013-06-12 01:20:00,60.3,23.4,29.55,NW,322,8.0,14.0,24,0.00,,---,0.00,VWS V14.01,2013-06-12 07:20:00,
2013-06-12 01:22:00,60.3,23.4,29.55,NW,322,8.0,14.0,24,0.00,,---,0.00,VWS V14.01,2013-06-12 07:22:00,
2013-06-12 01:30:00,61.7,23.5,29.53,NW,314,10.0,16.0,23,0.00,,---,0.00,VWS V14.01,2013-06-12 07:30:00,
2013-06-12 01:31:00,61.7,23.5,29.53,NW,314,10.0,16.0,23,0.00,,---,0.00,VWS V14.01,2013-06-12 07:31:00,
2013-06-12 01:40:00,61.0,23.0,29.55,NW,323,3.0,19.0,23,0.00,,---,0.00,VWS V14.01,2013-06-12 07:40:00,
2013-06-12 01:41:00,61.0,23.0,29.55,NW,323,3.0,19.0,23,0.00,,---,0.00,VWS V14.01,2013-06-12 07:41:00,
2013-06-12 01:50:00,63.2,23.8,29.53,NW,325,14.0,19.0,22,0.00,,---,0.00,VWS V14.01,2013-06-12 07:50:00,
2013-06-12 01:51:00,63.2,23.8,29.53,NW,325,14.0,19.0,22,0.00,,---,0.00,VWS V14.01,2013-06-12 07:51:00,
2013-06-12 02:00:00,63.3,22.7,29.54,NW,323,6.0,14.0,21,0.00,,---,0.00,VWS V14.01,2013-06-12 08:00:00,
2013-06-12 02:01:00,63.3,22.7,29.54,NW,323,6.0,14.0,21,0.00,,---,0.00,VWS V14.01,2013-06-12 08:01:00,
2013-06-12 02:10:00,61.2,23.1,29.55,North,350,10.0,15.0,23,0.00,,---,0.00,VWS V14.01,2013-06-12 08:10:00,
2013-06-12 02:11:00,61.2,23.1,29.55,North,350,10.0,15.0,23,0.00,,---,0.00,VWS V14.01,2013-06-12 08:11:00,
2013-06-12 02:20:00,60.7,22.7,29.56,NW,317,8.0,14.0,23,0.00,,---,0.00,VWS V14.01,2013-06-12 08:20:00,
2013-06-12 02:21:00,60.7,22.7,29.56,NW,317,8.0,14.0,23,0.00,,---,0.00,VWS V14.01,2013-06-12 08:21:00,
2013-06-12 02:30:00,59.0,23.2,29.56,North,355,9.0,12.0,25,0.00,,---,0.00,VWS V14.01,2013-06-12 08:30:00,
2013-06-12 02:31:00,59.0,23.2,29.56,North,355,9.0,12.0,25,0.00,,---,0.00,VWS V14.01,2013-06-12 08:31:00,
2013-06-12 02:40:00,53.7,23.0,29.61,North,355,5.0,9.0,30,0.00,,---,0.00,VWS V14.01,2013-06-12 08:40:00,
2013-06-12 02:41:00,53.7,23.0,29.61,North,355,5.0,9.0,30,0.00,,---,0.00,VWS V14.01,2013-06-12 08:41:00,
2013-06-12 02:50:00,52.5,23.5,29.63,North,355,5.0,11.0,32,0.00,,---,0.00,VWS V14.01,2013-06-12 08:50:00,
2013-06-12 02:51:00,52.5,23.5,29.63,North,355,5.0,11.0,32,0.00,,---,0.00,VWS V14.01,2013-06-12 08:51:00,
2013-06-12 03:00:00,52.2,23.2,29.64,North,355,7.0,12.0,32,0.00,,---,0.00,VWS V14.01,2013-06-12 09:00:00,
2013-06-12 03:02:00,52.2,23.2,29.64,North,355,7.0,12.0,32,0.00,,---,0.00,VWS V14.01,2013-06-12 09:02:00,
2013-06-12 03:10:00,52.2,22.5,29.63,North,355,4.0,9.0,31,0.00,,---,0.00,VWS V14.01,2013-06-12 09:10:00,
2013-06-12 03:12:00,52.2,22.5,29.63,North,355,4.0,9.0,31,0.00,,---,0.00,VWS V14.01,2013-06-12 09:12:00,
2013-06-12 03:20:00,50.8,22.8,29.65,North,355,7.0,10.0,33,0.00,,---,0.00,VWS V14.01,2013-06-12 09:20:00,
2013-06-12 03:21:00,50.8,22.8,29.65,North,355,7.0,10.0,33,0.00,,---,0.00,VWS V14.01,2013-06-12 09:21:00,
2013-06-12 03:40:00,51.3,23.2,29.66,North,355,9.0,12.0,33,0.00,,---,0.00,VWS V14.01,2013-06-12 09:40:00,
2013-06-12 03:42:00,51.3,23.2,29.66,North,355,9.0,12.0,33,0.00,,---,0.00,VWS V14.01,2013-06-12 09:42:00,
2013-06-12 03:50:00,49.9,22.7,29.66,North,355,6.0,11.0,34,0.00,,---,0.00,VWS V14.01,2013-06-12 09:50:00,
2013-06-12 03:51:00,49.9,22.7,29.66,North,355,6.0,11.0,34,0.00,,---,0.00,VWS V14.01,2013-06-12 09:51:00,
2013-06-12 04:00:00,50.5,23.2,29.66,North,355,6.0,11.0,34,0.00,,---,0.00,VWS V14.01,2013-06-12 10:00:00,
2013-06-12 04:01:00,50.5,23.2,29.66,North,355,6.0,11.0,34,0.00,,---,0.00,VWS V14.01,2013-06-12 10:01:00,
2013-06-12 04:10:00,49.7,23.2,29.69,North,351,0.0,9.0,35,0.00,,---,0.00,VWS V14.01,2013-06-12 10:10:00,
2013-06-12 04:11:00,49.7,23.2,29.69,North,351,0.0,9.0,35,0.00,,---,0.00,VWS V14.01,2013-06-12 10:11:00,
2013-06-12 04:20:00,49.2,22.7,29.69,North,351,0.0,0.0,35,0.00,,---,0.00,VWS V14.01,2013-06-12 10:20:00,
2013-06-12 04:21:00,49.2,22.7,29.69,North,351,0.0,0.0,35,0.00,,---,0.00,VWS V14.01,2013-06-12 10:21:00,
2013-06-12 04:30:00,51.0,22.2,29.68,North,350,0.0,7.0,32,0.00,,---,0.00,VWS V14.01,2013-06-12 10:30:00,
2013-06-12 04:31:00,51.0,22.2,29.68,North,350,0.0,7.0,32,0.00,,---,0.00,VWS V14.01,2013-06-12 10:31:00,
2013-06-12 04:40:00,53.0,22.4,29.67,North,350,0.0,7.0,30,0.00,,---,0.00,VWS V14.01,2013-06-12 10:40:00,
2013-06-12 04:41:00,53.0,22.4,29.67,North,350,0.0,7.0,30,0.00,,---,0.00,VWS V14.01,2013-06-12 10:41:00,
2013-06-12 04:50:00,50.6,21.9,29.69,North,350,0.0,0.0,32,0.00,,---,0.00,VWS V14.01,2013-06-12 10:50:00,
2013-06-12 04:51:00,50.6,21.9,29.69,North,350,0.0,0.0,32,0.00,,---,0.00,VWS V14.01,2013-06-12 10:51:00,
2013-06-12 05:00:00,52.0,22.3,29.69,North,350,0.0,1.0,31,0.00,,---,0.00,VWS V14.01,2013-06-12 11:00:00,
2013-06-12 05:01:00,52.0,22.3,29.69,North,350,0.0,1.0,31,0.00,,---,0.00,VWS V14.01,2013-06-12 11:01:00,
2013-06-12 05:10:00,53.8,23.1,29.68,North,350,0.0,0.0,30,0.00,,---,0.00,VWS V14.01,2013-06-12 11:10:00,
2013-06-12 05:11:00,53.8,23.1,29.68,North,350,0.0,0.0,30,0.00,,---,0.00,VWS V14.01,2013-06-12 11:11:00,
2013-06-12 05:20:00,50.8,22.8,29.72,North,350,0.0,0.0,33,0.00,,---,0.00,VWS V14.01,2013-06-12 11:20:00,
2013-06-12 05:21:00,50.8,22.8,29.72,North,350,0.0,0.0,33,0.00,,---,0.00,VWS V14.01,2013-06-12 11:21:00,
2013-06-12 05:30:00,47.9,22.2,29.73,North,350,0.0,0.0,36,0.00,,---,0.00,VWS V14.01,2013-06-12 11:30:00,
2013-06-12 05:31:00,47.9,22.2,29.73,North,350,0.0,0.0,36,0.00,,---,0.00,VWS V14.01,2013-06-12 11:31:00,
2013-06-12 05:40:00,45.5,22.6,29.75,North,355,0.0,0.0,40,0.00,,---,0.00,VWS V14.01,2013-06-12 11:40:00,
2013-06-12 05:41:00,45.5,22.6,29.75,North,355,0.0,0.0,40,0.00,,---,0.00,VWS V14.01,2013-06-12 11:41:00,
2013-06-12 05:50:00,45.3,22.4,29.77,North,350,0.0,2.0,40,0.00,,---,0.00,VWS V14.01,2013-06-12 11:50:00,
2013-06-12 05:51:00,45.3,22.4,29.77,North,350,0.0,2.0,40,0.00,,---,0.00,VWS V14.01,2013-06-12 11:51:00,
2013-06-12 06:00:00,45.5,22.6,29.76,North,350,0.0,0.0,40,0.00,,---,0.00,VWS V14.01,2013-06-12 12:00:00,
2013-06-12 06:02:00,45.5,22.6,29.76,North,350,0.0,0.0,40,0.00,,---,0.00,VWS V14.01,2013-06-12 12:02:00,
2013-06-12 06:10:00,45.6,23.3,29.79,North,350,1.0,2.0,41,0.00,,---,0.00,VWS V14.01,2013-06-12 12:10:00,
2013-06-12 06:11:00,45.6,23.3,29.79,North,350,1.0,2.0,41,0.00,,---,0.00,VWS V14.01,2013-06-12 12:11:00,
2013-06-12 06:20:00,47.0,24.0,29.77,NNW,342,2.0,2.0,40,0.00,,---,0.00,VWS V14.01,2013-06-12 12:20:00,
2013-06-12 06:21:00,47.0,24.0,29.77,NNW,342,2.0,2.0,40,0.00,,---,0.00,VWS V14.01,2013-06-12 12:21:00,
2013-06-12 06:30:00,48.1,24.3,29.78,NNW,341,3.0,7.0,39,0.00,,---,0.00,VWS V14.01,2013-06-12 12:30:00,
2013-06-12 06:31:00,48.1,24.3,29.78,NNW,341,3.0,7.0,39,0.00,,---,0.00,VWS V14.01,2013-06-12 12:31:00,
2013-06-12 06:40:00,49.5,25.0,29.76,NNW,341,2.0,10.0,38,0.00,,---,0.00,VWS V14.01,2013-06-12 12:40:00,
2013-06-12 06:41:00,49.5,25.0,29.76,NNW,341,2.0,10.0,38,0.00,,---,0.00,VWS V14.01,2013-06-12 12:41:00,
2013-06-12 06:50:00,50.5,25.9,29.76,NNW,341,3.0,5.0,38,0.00,,---,0.00,VWS V14.01,2013-06-12 12:50:00,
2013-06-12 06:51:00,50.5,25.9,29.76,NNW,341,3.0,5.0,38,0.00,,---,0.00,VWS V14.01,2013-06-12 12:51:00,
2013-06-12 07:00:00,52.0,26.5,29.75,NNW,341,0.0,10.0,37,0.00,,---,0.00,VWS V14.01,2013-06-12 13:00:00,
2013-06-12 07:02:00,52.0,26.5,29.75,NNW,341,0.0,10.0,37,0.00,,---,0.00,VWS V14.01,2013-06-12 13:02:00,
2013-06-12 07:10:00,53.9,27.6,29.77,NNW,342,2.0,3.0,36,0.00,,---,0.00,VWS V14.01,2013-06-12 13:10:00,
2013-06-12 07:12:00,53.9,27.6,29.77,NNW,342,2.0,3.0,36,0.00,,---,0.00,VWS V14.01,2013-06-12 13:12:00,
2013-06-12 07:20:00,55.9,28.0,29.75,North,360,0.0,3.0,34,0.00,,---,0.00,VWS V14.01,2013-06-12 13:20:00,
2013-06-12 07:21:00,55.9,28.0,29.75,North,360,0.0,3.0,34,0.00,,---,0.00,VWS V14.01,2013-06-12 13:21:00,
2013-06-12 07:30:00,56.7,27.2,29.74,NNE,13,4.0,7.0,32,0.00,,---,0.00,VWS V14.01,2013-06-12 13:30:00,
2013-06-12 07:31:00,56.7,27.2,29.74,NNE,13,4.0,7.0,32,0.00,,---,0.00,VWS V14.01,2013-06-12 13:31:00,
2013-06-12 07:40:00,56.2,27.5,29.76,NNE,13,5.0,7.0,33,0.00,,---,0.00,VWS V14.01,2013-06-12 13:40:00,
2013-06-12 07:41:00,56.2,27.5,29.76,NNE,13,5.0,7.0,33,0.00,,---,0.00,VWS V14.01,2013-06-12 13:41:00,
2013-06-12 07:50:00,55.6,27.7,29.77,NNE,13,2.0,7.0,34,0.00,,---,0.00,VWS V14.01,2013-06-12 13:50:00,
2013-06-12 07:51:00,55.6,27.7,29.77,NNE,13,2.0,7.0,34,0.00,,---,0.00,VWS V14.01,2013-06-12 13:51:00,
2013-06-12 08:00:00,57.5,28.6,29.75,North,9,4.0,10.0,33,0.00,,---,0.00,VWS V14.01,2013-06-12 14:00:00,
2013-06-12 08:02:00,57.5,28.6,29.75,North,9,4.0,10.0,33,0.00,,---,0.00,VWS V14.01,2013-06-12 14:02:00,
2013-06-12 08:10:00,58.7,28.9,29.74,NNE,17,0.0,6.0,32,0.00,,---,0.00,VWS V14.01,2013-06-12 14:10:00,
2013-06-12 08:11:00,58.7,28.9,29.74,NNE,17,0.0,6.0,32,0.00,,---,0.00,VWS V14.01,2013-06-12 14:11:00,
2013-06-12 08:20:00,60.0,29.3,29.74,NNW,345,0.0,0.0,31,0.00,,---,0.00,VWS V14.01,2013-06-12 14:20:00,
2013-06-12 08:21:00,60.0,29.3,29.74,NNW,345,0.0,0.0,31,0.00,,---,0.00,VWS V14.01,2013-06-12 14:21:00,
2013-06-12 08:30:00,60.3,28.8,29.74,NNW,345,0.0,0.0,30,0.00,,---,0.00,VWS V14.01,2013-06-12 14:30:00,
2013-06-12 08:31:00,60.3,28.8,29.74,NNW,345,0.0,0.0,30,0.00,,---,0.00,VWS V14.01,2013-06-12 14:31:00,
2013-06-12 08:40:00,61.3,28.8,29.73,NNW,346,0.0,0.0,29,0.00,,---,0.00,VWS V14.01,2013-06-12 14:40:00,
2013-06-12 08:41:00,61.3,28.8,29.73,NNW,346,0.0,0.0,29,0.00,,---,0.00,VWS V14.01,2013-06-12 14:41:00,
2013-06-12 08:50:00,62.1,28.6,29.72,NNW,346,0.0,0.0,28,0.00,,---,0.00,VWS V14.01,2013-06-12 14:50:00,
2013-06-12 08:51:00,62.1,28.6,29.72,NNW,346,0.0,0.0,28,0.00,,---,0.00,VWS V14.01,2013-06-12 14:51:00,
2013-06-12 09:00:00,61.9,28.5,29.73,NNE,16,0.0,2.0,28,0.00,,---,0.00,VWS V14.01,2013-06-12 15:00:00,
2013-06-12 09:02:00,61.9,28.5,29.73,NNE,16,0.0,2.0,28,0.00,,---,0.00,VWS V14.01,2013-06-12 15:02:00,
2013-06-12 09:10:00,62.5,29.8,29.74,North,355,0.0,0.0,29,0.00,,---,0.00,VWS V14.01,2013-06-12 15:10:00,
2013-06-12 09:12:00,62.5,29.8,29.74,North,355,0.0,0.0,29,0.00,,---,0.00,VWS V14.01,2013-06-12 15:12:00,
2013-06-12 09:20:00,64.2,28.6,29.72,North,5,6.0,6.0,26,0.00,,---,0.00,VWS V14.01,2013-06-12 15:20:00,
2013-06-12 09:22:00,64.2,28.6,29.72,North,5,6.0,6.0,26,0.00,,---,0.00,VWS V14.01,2013-06-12 15:22:00,
2013-06-12 09:30:00,65.8,27.0,29.71,NE,37,0.0,6.0,23,0.00,,---,0.00,VWS V14.01,2013-06-12 15:30:00,
2013-06-12 09:31:00,65.8,27.0,29.71,NE,37,0.0,6.0,23,0.00,,---,0.00,VWS V14.01,2013-06-12 15:31:00,
2013-06-12 09:40:00,66.6,26.6,29.69,NE,42,0.0,4.0,22,0.00,,---,0.00,VWS V14.01,2013-06-12 15:40:00,
2013-06-12 09:41:00,66.6,26.6,29.69,NE,42,0.0,4.0,22,0.00,,---,0.00,VWS V14.01,2013-06-12 15:41:00,
2013-06-12 09:50:00,68.3,28.0,29.69,NE,42,0.0,0.0,22,0.00,,---,0.00,VWS V14.01,2013-06-12 15:50:00,
2013-06-12 09:51:00,68.3,28.0,29.69,NE,42,0.0,0.0,22,0.00,,---,0.00,VWS V14.01,2013-06-12 15:51:00,
2013-06-12 10:00:00,70.7,28.9,29.65,NE,35,0.0,0.0,21,0.00,,---,0.00,VWS V14.01,2013-06-12 16:00:00,
2013-06-12 10:01:00,70.7,28.9,29.65,NE,35,0.0,0.0,21,0.00,,---,0.00,VWS V14.01,2013-06-12 16:01:00,
2013-06-12 10:10:00,71.2,28.1,29.66,NE,38,4.0,6.0,20,0.00,,---,0.00,VWS V14.01,2013-06-12 16:10:00,
2013-06-12 10:12:00,71.2,28.1,29.66,NE,38,4.0,6.0,20,0.00,,---,0.00,VWS V14.01,2013-06-12 16:12:00,
2013-06-12 10:20:00,70.8,26.5,29.66,ESE,104,2.0,6.0,19,0.00,,---,0.00,VWS V14.01,2013-06-12 16:20:00,
2013-06-12 10:22:00,70.8,26.5,29.66,ESE,104,2.0,6.0,19,0.00,,---,0.00,VWS V14.01,2013-06-12 16:22:00,
2013-06-12 10:30:00,70.8,29.0,29.65,ESE,103,3.0,6.0,21,0.00,,---,0.00,VWS V14.01,2013-06-12 16:30:00,
2013-06-12 10:32:00,70.8,29.0,29.65,ESE,103,3.0,6.0,21,0.00,,---,0.00,VWS V14.01,2013-06-12 16:32:00,
2013-06-12 10:40:00,71.2,29.3,29.65,ESE,122,9.0,11.0,21,0.00,,---,0.00,VWS V14.01,2013-06-12 16:40:00,
2013-06-12 10:42:00,71.2,29.3,29.65,ESE,122,9.0,11.0,21,0.00,,---,0.00,VWS V14.01,2013-06-12 16:42:00,
2013-06-12 10:50:00,71.6,29.6,29.64,SSE,152,8.0,14.0,21,0.00,,---,0.00,VWS V14.01,2013-06-12 16:50:00,
2013-06-12 10:51:00,71.6,29.6,29.64,SSE,152,8.0,14.0,21,0.00,,---,0.00,VWS V14.01,2013-06-12 16:51:00,
2013-06-12 11:00:00,72.8,30.6,29.62,SE,144,10.0,13.0,21,0.00,,---,0.00,VWS V14.01,2013-06-12 17:00:00,
2013-06-12 11:01:00,72.8,30.6,29.62,SE,144,10.0,13.0,21,0.00,,---,0.00,VWS V14.01,2013-06-12 17:01:00,
2013-06-12 11:10:00,73.9,30.3,29.64,SE,143,12.0,18.0,20,0.00,,---,0.00,VWS V14.01,2013-06-12 17:10:00,
2013-06-12 11:12:00,73.9,30.3,29.64,SE,143,12.0,18.0,20,0.00,,---,0.00,VWS V14.01,2013-06-12 17:12:00,
2013-06-12 11:20:00,74.9,31.2,29.63,South,169,7.0,16.0,20,0.00,,---,0.00,VWS V14.01,2013-06-12 17:20:00,
2013-06-12 11:22:00,74.9,31.2,29.63,South,169,7.0,16.0,20,0.00,,---,0.00,VWS V14.01,2013-06-12 17:22:00,
2013-06-12 11:30:00,75.5,30.4,29.61,SE,134,8.0,17.0,19,0.00,,---,0.00,VWS V14.01,2013-06-12 17:30:00,
2013-06-12 11:32:00,75.5,30.4,29.61,SE,134,8.0,17.0,19,0.00,,---,0.00,VWS V14.01,2013-06-12 17:32:00,
2013-06-12 11:40:00,76.7,30.0,29.61,SE,130,9.0,19.0,18,0.00,,---,0.00,VWS V14.01,2013-06-12 17:40:00,
2013-06-12 11:42:00,76.7,30.0,29.61,SE,130,9.0,19.0,18,0.00,,---,0.00,VWS V14.01,2013-06-12 17:42:00,
2013-06-12 11:50:00,76.6,31.3,29.61,SE,133,15.0,17.0,19,0.00,,---,0.00,VWS V14.01,2013-06-12 17:50:00,
2013-06-12 11:52:00,76.6,31.3,29.61,SE,133,15.0,17.0,19,0.00,,---,0.00,VWS V14.01,2013-06-12 17:52:00,
2013-06-12 12:00:00,76.9,30.2,29.61,South,180,10.0,17.0,18,0.00,,---,0.00,VWS V14.01,2013-06-12 18:00:00,
2013-06-12 12:02:00,76.9,30.2,29.61,South,180,10.0,17.0,18,0.00,,---,0.00,VWS V14.01,2013-06-12 18:02:00,
2013-06-12 12:10:00,77.7,30.9,29.59,South,169,10.0,18.0,18,0.00,,---,0.00,VWS V14.01,2013-06-12 18:10:00,
2013-06-12 12:12:00,77.7,30.9,29.59,South,169,10.0,18.0,18,0.00,,---,0.00,VWS V14.01,2013-06-12 18:12:00,
2013-06-12 12:20:00,77.9,29.6,29.58,SSE,148,6.0,16.0,17,0.00,,---,0.00,VWS V14.01,2013-06-12 18:20:00,
2013-06-12 12:22:00,77.9,29.6,29.58,SSE,148,6.0,16.0,17,0.00,,---,0.00,VWS V14.01,2013-06-12 18:22:00,
2013-06-12 12:30:00,78.7,30.3,29.58,SSE,165,8.0,20.0,17,0.00,,---,0.00,VWS V14.01,2013-06-12 18:30:00,
2013-06-12 12:32:00,78.7,30.3,29.58,SSE,165,8.0,20.0,17,0.00,,---,0.00,VWS V14.01,2013-06-12 18:32:00,
2013-06-12 12:40:00,80.5,27.0,29.57,South,186,15.0,25.0,14,0.00,,---,0.00,VWS V14.01,2013-06-12 18:40:00,
2013-06-12 12:42:00,80.5,27.0,29.57,South,186,15.0,25.0,14,0.00,,---,0.00,VWS V14.01,2013-06-12 18:42:00,
2013-06-12 12:50:00,81.0,27.4,29.56,South,175,11.0,27.0,14,0.00,,---,0.00,VWS V14.01,2013-06-12 18:50:00,
2013-06-12 12:51:00,81.0,27.4,29.56,South,175,11.0,27.0,14,0.00,,---,0.00,VWS V14.01,2013-06-12 18:51:00,
2013-06-12 13:00:00,80.7,28.8,29.56,SSW,205,22.0,24.0,15,0.00,,---,0.00,VWS V14.01,2013-06-12 19:00:00,
2013-06-12 13:01:00,80.7,28.8,29.56,SSW,205,22.0,24.0,15,0.00,,---,0.00,VWS V14.01,2013-06-12 19:01:00,
2013-06-12 13:10:00,81.3,29.3,29.53,WSW,240,14.0,25.0,15,0.00,,---,0.00,VWS V14.01,2013-06-12 19:10:00,
2013-06-12 13:12:00,81.3,29.3,29.53,WSW,240,14.0,25.0,15,0.00,,---,0.00,VWS V14.01,2013-06-12 19:12:00,
2013-06-12 13:20:00,81.1,29.1,29.53,South,178,9.0,25.0,15,0.00,,---,0.00,VWS V14.01,2013-06-12 19:20:00,
2013-06-12 13:22:00,81.1,29.1,29.53,South,178,9.0,25.0,15,0.00,,---,0.00,VWS V14.01,2013-06-12 19:22:00,
2013-06-12 13:30:00,79.3,29.3,29.55,South,179,6.0,13.0,16,0.00,,---,0.00,VWS V14.01,2013-06-12 19:30:00,
2013-06-12 13:32:00,79.3,29.3,29.55,South,179,6.0,13.0,16,0.00,,---,0.00,VWS V14.01,2013-06-12 19:32:00,
2013-06-12 13:40:00,80.0,28.2,29.55,East,100,0.0,13.0,15,0.00,,---,0.00,VWS V14.01,2013-06-12 19:40:00,
2013-06-12 13:41:00,80.0,28.2,29.55,East,100,0.0,13.0,15,0.00,,---,0.00,VWS V14.01,2013-06-12 19:41:00,
2013-06-12 13:50:00,81.3,29.3,29.52,South,182,0.0,9.0,15,0.00,,---,0.00,VWS V14.01,2013-06-12 19:50:00,
2013-06-12 13:51:00,81.3,29.3,29.52,South,182,0.0,9.0,15,0.00,,---,0.00,VWS V14.01,2013-06-12 19:51:00,
2013-06-12 14:00:00,81.9,28.1,29.52,West,261,13.0,22.0,14,0.00,,---,0.00,VWS V14.01,2013-06-12 20:00:00,
2013-06-12 14:02:00,81.9,28.1,29.52,West,261,13.0,22.0,14,0.00,,---,0.00,VWS V14.01,2013-06-12 20:02:00,
2013-06-12 14:10:00,81.7,29.6,29.58,WSW,246,14.0,25.0,15,0.00,,---,0.00,VWS V14.01,2013-06-12 20:10:00,
2013-06-12 14:12:00,81.7,29.6,29.58,WSW,246,14.0,25.0,15,0.00,,---,0.00,VWS V14.01,2013-06-12 20:12:00,
2013-06-12 14:20:00,81.6,27.8,29.58,West,266,8.0,20.0,14,0.00,,---,0.00,VWS V14.01,2013-06-12 20:20:00,
2013-06-12 14:22:00,81.6,27.8,29.58,West,266,8.0,20.0,14,0.00,,---,0.00,VWS V14.01,2013-06-12 20:22:00,
2013-06-12 14:30:00,81.9,29.8,29.58,WSW,250,4.0,19.0,15,0.00,,---,0.00,VWS V14.01,2013-06-12 20:30:00,
2013-06-12 14:32:00,81.9,29.8,29.58,WSW,250,4.0,19.0,15,0.00,,---,0.00,VWS V14.01,2013-06-12 20:32:00,
2013-06-12 14:40:00,81.4,27.7,29.59,SW,236,0.0,15.0,14,0.00,,---,0.00,VWS V14.01,2013-06-12 20:40:00,
2013-06-12 14:42:00,81.4,27.7,29.59,SW,236,0.0,15.0,14,0.00,,---,0.00,VWS V14.01,2013-06-12 20:42:00,
2013-06-12 14:50:00,81.6,29.5,29.57,South,178,13.0,16.0,15,0.00,,---,0.00,VWS V14.01,2013-06-12 20:50:00,
2013-06-12 14:52:00,81.6,29.5,29.57,South,178,13.0,16.0,15,0.00,,---,0.00,VWS V14.01,2013-06-12 20:52:00,
2013-06-12 15:00:00,82.6,31.9,29.56,SSW,196,5.0,24.0,16,0.00,,---,0.00,VWS V14.01,2013-06-12 21:00:00,
2013-06-12 15:02:00,82.6,31.9,29.56,SSW,196,5.0,24.0,16,0.00,,---,0.00,VWS V14.01,2013-06-12 21:02:00,
2013-06-12 15:10:00,83.3,29.2,29.56,SE,142,16.0,21.0,14,0.00,,---,0.00,VWS V14.01,2013-06-12 21:10:00,
2013-06-12 15:12:00,83.3,29.2,29.56,SE,142,16.0,21.0,14,0.00,,---,0.00,VWS V14.01,2013-06-12 21:12:00,
2013-06-12 15:20:00,81.9,29.8,29.57,SE,146,16.0,21.0,15,0.00,,---,0.00,VWS V14.01,2013-06-12 21:20:00,
2013-06-12 15:22:00,81.9,29.8,29.57,SE,146,16.0,21.0,15,0.00,,---,0.00,VWS V14.01,2013-06-12 21:22:00,
2013-06-12 15:30:00,82.7,32.0,29.57,SSE,161,6.0,25.0,16,0.00,,---,0.00,VWS V14.01,2013-06-12 21:30:00,
2013-06-12 15:32:00,82.7,32.0,29.57,SSE,161,6.0,25.0,16,0.00,,---,0.00,VWS V14.01,2013-06-12 21:32:00,
2013-06-12 15:40:00,81.8,31.3,29.58,ESE,121,14.0,22.0,16,0.00,,---,0.00,VWS V14.01,2013-06-12 21:40:00,
2013-06-12 15:42:00,81.8,31.3,29.58,ESE,121,14.0,22.0,16,0.00,,---,0.00,VWS V14.01,2013-06-12 21:42:00,
2013-06-12 15:50:00,81.8,29.7,29.57,SSE,149,12.0,20.0,15,0.00,,---,0.00,VWS V14.01,2013-06-12 21:50:00,
2013-06-12 15:52:00,81.8,29.7,29.57,SSE,149,12.0,20.0,15,0.00,,---,0.00,VWS V14.01,2013-06-12 21:52:00,
2013-06-12 16:00:00,80.6,28.7,29.58,SSE,148,4.0,26.0,15,0.00,,---,0.00,VWS V14.01,2013-06-12 22:00:00,
2013-06-12 16:02:00,80.6,28.7,29.58,SSE,148,4.0,26.0,15,0.00,,---,0.00,VWS V14.01,2013-06-12 22:02:00,
2013-06-12 16:10:00,80.5,30.2,29.57,SSE,155,13.0,17.0,16,0.00,,---,0.00,VWS V14.01,2013-06-12 22:10:00,
2013-06-12 16:12:00,80.5,30.2,29.57,SSE,155,13.0,17.0,16,0.00,,---,0.00,VWS V14.01,2013-06-12 22:12:00,
2013-06-12 16:20:00,80.3,30.1,29.57,SSE,160,9.0,20.0,16,0.00,,---,0.00,VWS V14.01,2013-06-12 22:20:00,
2013-06-12 16:22:00,80.3,30.1,29.57,SSE,160,9.0,20.0,16,0.00,,---,0.00,VWS V14.01,2013-06-12 22:22:00,
2013-06-12 16:30:00,80.1,31.4,29.56,SSE,150,15.0,21.0,17,0.00,,---,0.00,VWS V14.01,2013-06-12 22:30:00,
2013-06-12 16:32:00,80.1,31.4,29.56,SSE,150,15.0,21.0,17,0.00,,---,0.00,VWS V14.01,2013-06-12 22:32:00,
2013-06-12 16:40:00,80.3,30.1,29.56,SSE,163,6.0,20.0,16,0.00,,---,0.00,VWS V14.01,2013-06-12 22:40:00,
2013-06-12 16:42:00,80.3,30.1,29.56,SSE,163,6.0,20.0,16,0.00,,---,0.00,VWS V14.01,2013-06-12 22:42:00,
2013-06-12 16:50:00,79.4,30.8,29.57,SSE,159,15.0,25.0,17,0.00,,---,0.00,VWS V14.01,2013-06-12 22:50:00,
2013-06-12 16:52:00,79.4,30.8,29.57,SSE,159,15.0,25.0,17,0.00,,---,0.00,VWS V14.01,2013-06-12 22:52:00,
2013-06-12 17:00:00,79.0,30.5,29.58,SE,139,11.0,25.0,17,0.00,,---,0.00,VWS V14.01,2013-06-12 23:00:00,
2013-06-12 17:02:00,79.0,30.5,29.58,SE,139,11.0,25.0,17,0.00,,---,0.00,VWS V14.01,2013-06-12 23:02:00,
2013-06-12 17:10:00,79.5,30.9,29.62,SE,134,7.0,25.0,17,0.00,,---,0.00,VWS V14.01,2013-06-12 23:10:00,
2013-06-12 17:12:00,79.5,30.9,29.62,SE,134,7.0,25.0,17,0.00,,---,0.00,VWS V14.01,2013-06-12 23:12:00,
2013-06-12 17:20:00,79.4,30.8,29.61,SE,139,13.0,20.0,17,0.00,,---,0.00,VWS V14.01,2013-06-12 23:20:00,
2013-06-12 17:22:00,79.4,30.8,29.61,SE,139,13.0,20.0,17,0.00,,---,0.00,VWS V14.01,2013-06-12 23:22:00,
2013-06-12 17:30:00,79.6,31.0,29.60,SSW,209,10.0,27.0,17,0.00,,---,0.00,VWS V14.01,2013-06-12 23:30:00,
2013-06-12 17:32:00,79.6,31.0,29.60,SSW,209,10.0,27.0,17,0.00,,---,0.00,VWS V14.01,2013-06-12 23:32:00,
2013-06-12 17:40:00,80.1,32.8,29.61,SSW,213,0.0,17.0,18,0.00,,---,0.00,VWS V14.01,2013-06-12 23:40:00,
2013-06-12 17:42:00,80.1,32.8,29.61,SSW,213,0.0,17.0,18,0.00,,---,0.00,VWS V14.01,2013-06-12 23:42:00,
2013-06-12 17:50:00,79.9,31.2,29.61,SSW,204,1.0,13.0,17,0.00,,---,0.00,VWS V14.01,2013-06-12 23:50:00,
2013-06-12 17:52:00,79.9,31.2,29.61,SSW,204,1.0,13.0,17,0.00,,---,0.00,VWS V14.01,2013-06-12 23:52:00,
2013-06-12 18:02:00,80.6,31.8,29.60,South,173,0.0,14.0,17,0.00,,---,0.00,VWS V14.01,2013-06-13 00:02:00,
2013-06-12 18:10:00,80.9,33.5,29.55,South,169,12.0,16.0,18,0.00,,---,0.00,VWS V14.01,2013-06-13 00:10:00,
2013-06-12 18:12:00,80.9,33.5,29.55,South,169,12.0,16.0,18,0.00,,---,0.00,VWS V14.01,2013-06-13 00:12:00,
2013-06-12 18:20:00,81.0,32.1,29.55,SE,146,7.0,12.0,17,0.00,,---,0.00,VWS V14.01,2013-06-13 00:20:00,
2013-06-12 18:22:00,81.0,32.1,29.55,SE,146,7.0,12.0,17,0.00,,---,0.00,VWS V14.01,2013-06-13 00:22:00,
2013-06-12 18:30:00,81.2,32.3,29.56,South,184,0.0,13.0,17,0.00,,---,0.00,VWS V14.01,2013-06-13 00:30:00,
2013-06-12 18:32:00,81.2,32.3,29.56,South,184,0.0,13.0,17,0.00,,---,0.00,VWS V14.01,2013-06-13 00:32:00,
2013-06-12 18:40:00,82.1,31.5,29.54,SSE,150,0.0,2.0,16,0.00,,---,0.00,VWS V14.01,2013-06-13 00:40:00,
2013-06-12 18:42:00,82.1,31.5,29.54,SSE,150,0.0,2.0,16,0.00,,---,0.00,VWS V14.01,2013-06-13 00:42:00,
2013-06-12 18:50:00,81.9,31.4,29.55,West,269,4.0,15.0,16,0.00,,---,0.00,VWS V14.01,2013-06-13 00:50:00,
2013-06-12 18:52:00,81.9,31.4,29.55,West,269,4.0,15.0,16,0.00,,---,0.00,VWS V14.01,2013-06-13 00:52:00,
2013-06-12 19:00:00,80.0,29.8,29.56,West,277,15.0,20.0,16,0.00,,---,0.00,VWS V14.01,2013-06-13 01:00:00,
2013-06-12 19:02:00,80.0,29.8,29.56,West,277,15.0,20.0,16,0.00,,---,0.00,VWS V14.01,2013-06-13 01:02:00,
2013-06-12 19:10:00,78.7,30.3,29.53,West,270,10.0,21.0,17,0.00,,---,0.00,VWS V14.01,2013-06-13 01:10:00,
2013-06-12 19:12:00,78.7,30.3,29.53,West,270,10.0,21.0,17,0.00,,---,0.00,VWS V14.01,2013-06-13 01:12:00,
2013-06-12 19:20:00,78.9,30.4,29.54,West,272,8.0,18.0,17,0.00,,---,0.00,VWS V14.01,2013-06-13 01:20:00,
2013-06-12 19:22:00,78.9,30.4,29.54,West,272,8.0,18.0,17,0.00,,---,0.00,VWS V14.01,2013-06-13 01:22:00,
2013-06-12 19:30:00,77.8,30.9,29.55,West,264,5.0,15.0,18,0.00,,---,0.00,VWS V14.01,2013-06-13 01:30:00,
2013-06-12 19:32:00,77.8,30.9,29.55,West,264,5.0,15.0,18,0.00,,---,0.00,VWS V14.01,2013-06-13 01:32:00,
2013-06-12 19:40:00,76.8,30.1,29.56,West,265,11.0,16.0,18,0.00,,---,0.00,VWS V14.01,2013-06-13 01:40:00,
2013-06-12 19:42:00,76.8,30.1,29.56,West,265,11.0,16.0,18,0.00,,---,0.00,VWS V14.01,2013-06-13 01:42:00,
2013-06-12 19:50:00,75.7,29.2,29.56,WSW,257,10.0,18.0,18,0.00,,---,0.00,VWS V14.01,2013-06-13 01:50:00,
2013-06-12 19:52:00,75.7,29.2,29.56,WSW,257,10.0,18.0,18,0.00,,---,0.00,VWS V14.01,2013-06-13 01:52:00,
2013-06-12 20:00:00,75.2,28.8,29.58,West,264,9.0,18.0,18,0.00,,---,0.00,VWS V14.01,2013-06-13 02:00:00,
2013-06-12 20:02:00,75.2,28.8,29.58,West,264,9.0,18.0,18,0.00,,---,0.00,VWS V14.01,2013-06-13 02:02:00,
2013-06-12 20:10:00,74.6,29.7,29.56,West,277,10.0,19.0,19,0.00,,---,0.00,VWS V14.01,2013-06-13 02:10:00,
2013-06-12 20:12:00,74.6,29.7,29.56,West,277,10.0,19.0,19,0.00,,---,0.00,VWS V14.01,2013-06-13 02:12:00,
2013-06-12 20:20:00,74.1,27.9,29.56,West,279,12.0,21.0,18,0.00,,---,0.00,VWS V14.01,2013-06-13 02:20:00,
2013-06-12 20:22:00,74.1,27.9,29.56,West,279,12.0,21.0,18,0.00,,---,0.00,VWS V14.01,2013-06-13 02:22:00,
2013-06-12 20:30:00,73.8,27.7,29.57,WNW,298,11.0,17.0,18,0.00,,---,0.00,VWS V14.01,2013-06-13 02:30:00,
2013-06-12 20:32:00,73.8,27.7,29.57,WNW,298,11.0,17.0,18,0.00,,---,0.00,VWS V14.01,2013-06-13 02:32:00,
2013-06-12 20:40:00,73.2,27.2,29.60,WNW,294,18.0,20.0,18,0.00,,---,0.00,VWS V14.01,2013-06-13 02:40:00,
2013-06-12 20:42:00,73.2,27.2,29.60,WNW,294,18.0,20.0,18,0.00,,---,0.00,VWS V14.01,2013-06-13 02:42:00,
2013-06-12 20:50:00,73.3,27.3,29.60,NW,320,10.0,24.0,18,0.00,,---,0.00,VWS V14.01,2013-06-13 02:50:00,
2013-06-12 20:52:00,73.3,27.3,29.60,NW,320,10.0,24.0,18,0.00,,---,0.00,VWS V14.01,2013-06-13 02:52:00,
2013-06-12 21:00:00,73.3,25.9,29.61,NW,309,11.0,18.0,17,0.00,,---,0.00,VWS V14.01,2013-06-13 03:00:00,
2013-06-12 21:02:00,73.3,25.9,29.61,NW,309,11.0,18.0,17,0.00,,---,0.00,VWS V14.01,2013-06-13 03:02:00,
2013-06-12 21:10:00,73.0,25.6,29.53,NW,307,9.0,15.0,17,0.00,,---,0.00,VWS V14.01,2013-06-13 03:10:00,
2013-06-12 21:12:00,73.0,25.6,29.53,NW,307,9.0,15.0,17,0.00,,---,0.00,VWS V14.01,2013-06-13 03:12:00,
2013-06-12 21:20:00,72.7,25.4,29.54,WNW,282,11.0,17.0,17,0.00,,---,0.00,VWS V14.01,2013-06-13 03:20:00,
2013-06-12 21:22:00,72.7,25.4,29.54,WNW,282,11.0,17.0,17,0.00,,---,0.00,VWS V14.01,2013-06-13 03:22:00,
2013-06-12 21:30:00,72.3,25.1,29.55,West,280,10.0,17.0,17,0.00,,---,0.00,VWS V14.01,2013-06-13 03:30:00,
2013-06-12 21:32:00,72.3,25.1,29.55,West,280,10.0,17.0,17,0.00,,---,0.00,VWS V14.01,2013-06-13 03:32:00,
2013-06-12 21:40:00,72.5,25.2,29.56,NW,319,13.0,17.0,17,0.00,,---,0.00,VWS V14.01,2013-06-13 03:40:00,
2013-06-12 21:42:00,72.5,25.2,29.56,NW,319,13.0,17.0,17,0.00,,---,0.00,VWS V14.01,2013-06-13 03:42:00,
2013-06-12 21:50:00,71.9,24.8,29.56,WNW,296,10.0,20.0,17,0.00,,---,0.00,VWS V14.01,2013-06-13 03:50:00,
2013-06-12 21:52:00,71.9,24.8,29.56,WNW,296,10.0,20.0,17,0.00,,---,0.00,VWS V14.01,2013-06-13 03:52:00,
2013-06-12 22:00:00,71.9,24.8,29.56,NW,316,15.0,20.0,17,0.00,,---,0.00,VWS V14.01,2013-06-13 04:00:00,
2013-06-12 22:02:00,71.9,24.8,29.56,NW,316,15.0,20.0,17,0.00,,---,0.00,VWS V14.01,2013-06-13 04:02:00,
2013-06-12 22:10:00,71.6,23.1,29.55,West,279,10.0,19.0,16,0.00,,---,0.00,VWS V14.01,2013-06-13 04:10:00,
2013-06-12 22:12:00,71.6,23.1,29.55,West,279,10.0,19.0,16,0.00,,---,0.00,VWS V14.01,2013-06-13 04:12:00,
2013-06-12 22:20:00,71.6,23.1,29.56,North,350,0.0,17.0,16,0.00,,---,0.00,VWS V14.01,2013-06-13 04:20:00,
2013-06-12 22:22:00,71.6,23.1,29.56,North,350,0.0,17.0,16,0.00,,---,0.00,VWS V14.01,2013-06-13 04:22:00,
2013-06-12 22:30:00,71.2,22.8,29.56,NW,321,5.0,14.0,16,0.00,,---,0.00,VWS V14.01,2013-06-13 04:30:00,
2013-06-12 22:32:00,71.2,22.8,29.56,NW,321,5.0,14.0,16,0.00,,---,0.00,VWS V14.01,2013-06-13 04:32:00,
2013-06-12 22:40:00,70.6,23.7,29.55,North,355,0.0,12.0,17,0.00,,---,0.00,VWS V14.01,2013-06-13 04:40:00,
2013-06-12 22:42:00,70.6,23.7,29.55,North,355,0.0,12.0,17,0.00,,---,0.00,VWS V14.01,2013-06-13 04:42:00,
2013-06-12 22:50:00,67.7,27.5,29.59,North,351,0.0,9.0,22,0.00,,---,0.00,VWS V14.01,2013-06-13 04:50:00,
2013-06-12 22:52:00,67.7,27.5,29.59,North,351,0.0,9.0,22,0.00,,---,0.00,VWS V14.01,2013-06-13 04:52:00,
2013-06-12 23:00:00,65.6,27.9,29.60,North,350,0.0,0.0,24,0.00,,---,0.00,VWS V14.01,2013-06-13 05:00:00,
2013-06-12 23:02:00,65.6,27.9,29.60,North,350,0.0,0.0,24,0.00,,---,0.00,VWS V14.01,2013-06-13 05:02:00,
2013-06-12 23:10:00,64.5,26.9,29.58,North,351,0.0,1.0,24,0.00,,---,0.00,VWS V14.01,2013-06-13 05:10:00,
2013-06-12 23:12:00,64.5,26.9,29.58,North,351,0.0,1.0,24,0.00,,---,0.00,VWS V14.01,2013-06-13 05:12:00,
2013-06-12 23:20:00,63.7,26.3,29.58,North,350,0.0,1.0,24,0.00,,---,0.00,VWS V14.01,2013-06-13 05:20:00,
2013-06-12 23:22:00,63.7,26.3,29.58,North,350,0.0,1.0,24,0.00,,---,0.00,VWS V14.01,2013-06-13 05:22:00,
2013-06-12 23:30:00,63.0,26.6,29.58,North,351,0.0,1.0,25,0.00,,---,0.00,VWS V14.01,2013-06-13 05:30:00,
2013-06-12 23:32:00,63.0,26.6,29.58,North,351,0.0,1.0,25,0.00,,---,0.00,VWS V14.01,2013-06-13 05:32:00,
2013-06-12 23:40:00,61.4,25.3,29.59,North,350,0.0,0.0,25,0.00,,---,0.00,VWS V14.01,2013-06-13 05:40:00,
2013-06-12 23:42:00,61.4,25.3,29.59,North,350,0.0,0.0,25,0.00,,---,0.00,VWS V14.01,2013-06-13 05:42:00,
2013-06-12 23:50:00,60.6,25.5,29.59,North,351,0.0,0.0,26,0.00,,---,0.00,VWS V14.01,2013-06-13 05:50:00,
2013-06-12 23:52:00,60.6,25.5,29.59,North,351,0.0,0.0,26,0.00,,---,0.00,VWS V14.01,2013-06-13 05:52:00,